sensor_id;sensor_type;location;lat;lon;timestamp;P1;durP1;ratioP1;P2;durP2;ratioP2
22127;SDS011;11230;50.854;6.454;2022-08-19T00:04:04;1.27;;;0.88;;
22127;SDS011;11230;50.854;6.454;2022-08-19T00:08:45;2.08;;;1.17;;
22127;SDS011;11230;50.854;6.454;2022-08-19T00:13:28;0.93;;;0.88;;
22127;SDS011;11230;50.854;6.454;2022-08-19T00:18:10;1.48;;;1.08;;
22127;SDS011;11230;50.854;6.454;2022-08-19T00:22:51;1.42;;;0.80;;
22127;SDS011;11230;50.854;6.454;2022-08-19T00:27:33;0.60;;;0.60;;
22127;SDS011;11230;50.854;6.454;2022-08-19T00:32:16;1.85;;;1.05;;
22127;SDS011;11230;50.854;6.454;2022-08-19T00:36:57;1.60;;;0.90;;
22127;SDS011;11230;50.854;6.454;2022-08-19T00:41:39;2.80;;;1.15;;
22127;SDS011;11230;50.854;6.454;2022-08-19T00:46:21;3.92;;;1.00;;
22127;SDS011;11230;50.854;6.454;2022-08-19T00:51:04;0.80;;;0.80;;
22127;SDS011;11230;50.854;6.454;2022-08-19T00:55:46;1.02;;;0.77;;
22127;SDS011;11230;50.854;6.454;2022-08-19T01:00:29;1.70;;;1.25;;
22127;SDS011;11230;50.854;6.454;2022-08-19T01:05:12;2.67;;;1.48;;
22127;SDS011;11230;50.854;6.454;2022-08-19T01:09:56;0.60;;;0.60;;
22127;SDS011;11230;50.854;6.454;2022-08-19T01:14:38;3.70;;;1.27;;
22127;SDS011;11230;50.854;6.454;2022-08-19T01:19:21;2.30;;;1.73;;
22127;SDS011;11230;50.854;6.454;2022-08-19T01:24:06;1.40;;;1.30;;
22127;SDS011;11230;50.854;6.454;2022-08-19T01:28:49;1.17;;;0.90;;
22127;SDS011;11230;50.854;6.454;2022-08-19T01:33:31;1.45;;;1.35;;
22127;SDS011;11230;50.854;6.454;2022-08-19T01:38:19;1.75;;;0.82;;
22127;SDS011;11230;50.854;6.454;2022-08-19T01:43:02;3.78;;;1.40;;
22127;SDS011;11230;50.854;6.454;2022-08-19T01:47:43;1.67;;;1.50;;
22127;SDS011;11230;50.854;6.454;2022-08-19T01:52:25;1.60;;;1.23;;
22127;SDS011;11230;50.854;6.454;2022-08-19T01:57:08;3.00;;;1.42;;
22127;SDS011;11230;50.854;6.454;2022-08-19T02:01:52;1.35;;;1.15;;
22127;SDS011;11230;50.854;6.454;2022-08-19T02:06:33;3.55;;;1.75;;
22127;SDS011;11230;50.854;6.454;2022-08-19T02:11:18;1.27;;;0.90;;
22127;SDS011;11230;50.854;6.454;2022-08-19T02:16:00;1.02;;;0.98;;
22127;SDS011;11230;50.854;6.454;2022-08-19T02:20:43;1.55;;;0.88;;
22127;SDS011;11230;50.854;6.454;2022-08-19T02:25:27;1.50;;;1.40;;
22127;SDS011;11230;50.854;6.454;2022-08-19T02:30:10;1.45;;;1.15;;
22127;SDS011;11230;50.854;6.454;2022-08-19T02:34:52;0.77;;;0.70;;
22127;SDS011;11230;50.854;6.454;2022-08-19T02:39:35;1.00;;;0.90;;
22127;SDS011;11230;50.854;6.454;2022-08-19T02:44:16;3.03;;;1.83;;
22127;SDS011;11230;50.854;6.454;2022-08-19T02:48:59;1.15;;;1.00;;
22127;SDS011;11230;50.854;6.454;2022-08-19T02:53:40;1.38;;;1.08;;
22127;SDS011;11230;50.854;6.454;2022-08-19T02:58:23;1.00;;;0.88;;
22127;SDS011;11230;50.854;6.454;2022-08-19T03:03:06;1.17;;;1.08;;
22127;SDS011;11230;50.854;6.454;2022-08-19T03:07:47;0.70;;;0.70;;
22127;SDS011;11230;50.854;6.454;2022-08-19T03:12:29;1.73;;;1.42;;
22127;SDS011;11230;50.854;6.454;2022-08-19T03:17:11;1.48;;;1.13;;
22127;SDS011;11230;50.854;6.454;2022-08-19T03:21:53;2.15;;;1.77;;
22127;SDS011;11230;50.854;6.454;2022-08-19T03:26:38;3.38;;;1.73;;
22127;SDS011;11230;50.854;6.454;2022-08-19T03:31:20;2.72;;;1.23;;
22127;SDS011;11230;50.854;6.454;2022-08-19T03:36:05;1.52;;;1.10;;
22127;SDS011;11230;50.854;6.454;2022-08-19T03:40:48;1.65;;;1.33;;
22127;SDS011;11230;50.854;6.454;2022-08-19T03:45:29;1.70;;;1.23;;
22127;SDS011;11230;50.854;6.454;2022-08-19T03:50:11;1.52;;;1.08;;
22127;SDS011;11230;50.854;6.454;2022-08-19T03:54:53;0.88;;;0.82;;
22127;SDS011;11230;50.854;6.454;2022-08-19T03:59:35;3.72;;;1.30;;
22127;SDS011;11230;50.854;6.454;2022-08-19T04:04:17;1.30;;;1.10;;
22127;SDS011;11230;50.854;6.454;2022-08-19T04:08:58;1.60;;;1.42;;
22127;SDS011;11230;50.854;6.454;2022-08-19T04:13:42;2.22;;;1.92;;
22127;SDS011;11230;50.854;6.454;2022-08-19T04:18:24;3.80;;;2.33;;
22127;SDS011;11230;50.854;6.454;2022-08-19T04:23:05;1.55;;;1.23;;
22127;SDS011;11230;50.854;6.454;2022-08-19T04:27:46;3.03;;;1.60;;
22127;SDS011;11230;50.854;6.454;2022-08-19T04:32:29;3.47;;;2.30;;
22127;SDS011;11230;50.854;6.454;2022-08-19T04:37:11;1.35;;;1.27;;
22127;SDS011;11230;50.854;6.454;2022-08-19T04:41:54;1.83;;;1.35;;
22127;SDS011;11230;50.854;6.454;2022-08-19T04:46:53;1.42;;;1.30;;
22127;SDS011;11230;50.854;6.454;2022-08-19T04:51:35;1.95;;;1.08;;
22127;SDS011;11230;50.854;6.454;2022-08-19T04:56:17;2.30;;;1.67;;
22127;SDS011;11230;50.854;6.454;2022-08-19T05:01:02;3.05;;;2.20;;
22127;SDS011;11230;50.854;6.454;2022-08-19T05:05:46;1.65;;;1.25;;
22127;SDS011;11230;50.854;6.454;2022-08-19T05:10:29;3.58;;;1.40;;
22127;SDS011;11230;50.854;6.454;2022-08-19T05:15:11;2.20;;;1.88;;
22127;SDS011;11230;50.854;6.454;2022-08-19T05:19:52;3.30;;;2.75;;
22127;SDS011;11230;50.854;6.454;2022-08-19T05:24:52;2.65;;;1.90;;
22127;SDS011;11230;50.854;6.454;2022-08-19T05:29:36;3.05;;;2.20;;
22127;SDS011;11230;50.854;6.454;2022-08-19T05:34:17;4.30;;;2.05;;
22127;SDS011;11230;50.854;6.454;2022-08-19T05:38:59;2.22;;;1.77;;
22127;SDS011;11230;50.854;6.454;2022-08-19T05:43:41;9.85;;;3.03;;
22127;SDS011;11230;50.854;6.454;2022-08-19T05:48:24;3.17;;;2.38;;
22127;SDS011;11230;50.854;6.454;2022-08-19T05:53:06;2.83;;;2.60;;
22127;SDS011;11230;50.854;6.454;2022-08-19T05:57:48;3.20;;;2.90;;
22127;SDS011;11230;50.854;6.454;2022-08-19T06:02:30;5.05;;;2.72;;
22127;SDS011;11230;50.854;6.454;2022-08-19T06:07:13;3.08;;;2.58;;
22127;SDS011;11230;50.854;6.454;2022-08-19T06:11:55;6.43;;;2.53;;
22127;SDS011;11230;50.854;6.454;2022-08-19T06:16:40;8.63;;;4.03;;
22127;SDS011;11230;50.854;6.454;2022-08-19T06:21:22;6.68;;;2.88;;
22127;SDS011;11230;50.854;6.454;2022-08-19T06:26:06;2.67;;;2.33;;
22127;SDS011;11230;50.854;6.454;2022-08-19T06:30:47;7.97;;;3.42;;
22127;SDS011;11230;50.854;6.454;2022-08-19T06:35:29;7.57;;;3.95;;
22127;SDS011;11230;50.854;6.454;2022-08-19T06:40:11;8.30;;;3.22;;
22127;SDS011;11230;50.854;6.454;2022-08-19T06:44:54;7.03;;;2.42;;
22127;SDS011;11230;50.854;6.454;2022-08-19T06:49:38;9.10;;;3.95;;
22127;SDS011;11230;50.854;6.454;2022-08-19T06:54:19;10.73;;;4.90;;
22127;SDS011;11230;50.854;6.454;2022-08-19T06:59:01;4.03;;;2.92;;
22127;SDS011;11230;50.854;6.454;2022-08-19T07:03:44;3.72;;;3.20;;
22127;SDS011;11230;50.854;6.454;2022-08-19T07:08:26;9.65;;;5.22;;
22127;SDS011;11230;50.854;6.454;2022-08-19T07:13:07;9.55;;;4.32;;
22127;SDS011;11230;50.854;6.454;2022-08-19T07:17:49;6.32;;;3.47;;
22127;SDS011;11230;50.854;6.454;2022-08-19T07:22:34;6.78;;;3.53;;
22127;SDS011;11230;50.854;6.454;2022-08-19T07:27:16;4.70;;;3.58;;
22127;SDS011;11230;50.854;6.454;2022-08-19T07:31:58;7.53;;;4.03;;
22127;SDS011;11230;50.854;6.454;2022-08-19T07:36:40;5.25;;;4.07;;
22127;SDS011;11230;50.854;6.454;2022-08-19T07:41:25;2.97;;;1.88;;
22127;SDS011;11230;50.854;6.454;2022-08-19T07:46:08;3.90;;;2.45;;
22127;SDS011;11230;50.854;6.454;2022-08-19T07:50:50;2.28;;;1.83;;
22127;SDS011;11230;50.854;6.454;2022-08-19T07:55:31;2.63;;;1.67;;
22127;SDS011;11230;50.854;6.454;2022-08-19T08:00:15;2.65;;;1.85;;
22127;SDS011;11230;50.854;6.454;2022-08-19T08:04:57;3.08;;;2.25;;
22127;SDS011;11230;50.854;6.454;2022-08-19T08:09:55;9.20;;;2.55;;
22127;SDS011;11230;50.854;6.454;2022-08-19T08:14:38;2.80;;;1.25;;
22127;SDS011;11230;50.854;6.454;2022-08-19T08:19:22;1.25;;;1.15;;
22127;SDS011;11230;50.854;6.454;2022-08-19T08:24:03;6.60;;;1.77;;
22127;SDS011;11230;50.854;6.454;2022-08-19T08:28:45;2.92;;;1.65;;
22127;SDS011;11230;50.854;6.454;2022-08-19T08:33:28;1.42;;;0.90;;
22127;SDS011;11230;50.854;6.454;2022-08-19T08:38:13;2.33;;;1.48;;
22127;SDS011;11230;50.854;6.454;2022-08-19T08:42:55;3.50;;;1.92;;
22127;SDS011;11230;50.854;6.454;2022-08-19T08:47:40;2.75;;;1.73;;
22127;SDS011;11230;50.854;6.454;2022-08-19T08:52:24;4.13;;;2.58;;
22127;SDS011;11230;50.854;6.454;2022-08-19T08:57:09;2.80;;;1.85;;
22127;SDS011;11230;50.854;6.454;2022-08-19T09:01:51;5.93;;;2.67;;
22127;SDS011;11230;50.854;6.454;2022-08-19T09:06:36;4.35;;;2.30;;
22127;SDS011;11230;50.854;6.454;2022-08-19T09:11:21;2.55;;;1.77;;
22127;SDS011;11230;50.854;6.454;2022-08-19T09:16:06;6.75;;;3.00;;
22127;SDS011;11230;50.854;6.454;2022-08-19T09:20:49;5.68;;;2.42;;
22127;SDS011;11230;50.854;6.454;2022-08-19T09:25:31;5.47;;;2.63;;
22127;SDS011;11230;50.854;6.454;2022-08-19T09:30:15;4.03;;;2.67;;
22127;SDS011;11230;50.854;6.454;2022-08-19T09:34:58;4.43;;;2.53;;
22127;SDS011;11230;50.854;6.454;2022-08-19T09:39:40;2.30;;;1.92;;
22127;SDS011;11230;50.854;6.454;2022-08-19T09:44:22;4.30;;;2.17;;
22127;SDS011;11230;50.854;6.454;2022-08-19T09:49:03;2.30;;;1.65;;
22127;SDS011;11230;50.854;6.454;2022-08-19T09:53:47;2.35;;;1.92;;
22127;SDS011;11230;50.854;6.454;2022-08-19T09:58:30;2.85;;;2.45;;
22127;SDS011;11230;50.854;6.454;2022-08-19T10:03:11;1.52;;;1.42;;
22127;SDS011;11230;50.854;6.454;2022-08-19T10:07:53;3.60;;;3.00;;
22127;SDS011;11230;50.854;6.454;2022-08-19T10:12:36;2.72;;;2.03;;
22127;SDS011;11230;50.854;6.454;2022-08-19T10:17:17;4.45;;;2.15;;
22127;SDS011;11230;50.854;6.454;2022-08-19T10:21:59;3.05;;;2.08;;
22127;SDS011;11230;50.854;6.454;2022-08-19T10:26:43;3.60;;;1.90;;
22127;SDS011;11230;50.854;6.454;2022-08-19T10:31:30;5.30;;;2.73;;
22127;SDS011;11230;50.854;6.454;2022-08-19T10:36:12;5.82;;;3.92;;
22127;SDS011;11230;50.854;6.454;2022-08-19T10:40:55;1.98;;;1.60;;
22127;SDS011;11230;50.854;6.454;2022-08-19T10:45:37;3.00;;;2.15;;
22127;SDS011;11230;50.854;6.454;2022-08-19T10:50:19;3.15;;;2.53;;
22127;SDS011;11230;50.854;6.454;2022-08-19T10:55:19;4.13;;;2.50;;
22127;SDS011;11230;50.854;6.454;2022-08-19T11:00:19;1.92;;;1.73;;
22127;SDS011;11230;50.854;6.454;2022-08-19T11:05:00;4.43;;;3.15;;
22127;SDS011;11230;50.854;6.454;2022-08-19T11:09:43;3.58;;;1.92;;
22127;SDS011;11230;50.854;6.454;2022-08-19T11:14:26;3.35;;;2.17;;
22127;SDS011;11230;50.854;6.454;2022-08-19T11:19:11;2.60;;;1.65;;
22127;SDS011;11230;50.854;6.454;2022-08-19T11:23:54;4.70;;;3.22;;
22127;SDS011;11230;50.854;6.454;2022-08-19T11:28:37;3.97;;;1.92;;
22127;SDS011;11230;50.854;6.454;2022-08-19T11:33:18;2.58;;;1.45;;
22127;SDS011;11230;50.854;6.454;2022-08-19T11:38:00;3.55;;;2.00;;
22127;SDS011;11230;50.854;6.454;2022-08-19T11:42:42;2.75;;;1.73;;
22127;SDS011;11230;50.854;6.454;2022-08-19T11:47:37;1.52;;;1.05;;
22127;SDS011;11230;50.854;6.454;2022-08-19T11:52:19;3.92;;;1.70;;
22127;SDS011;11230;50.854;6.454;2022-08-19T11:57:01;3.25;;;2.60;;
22127;SDS011;11230;50.854;6.454;2022-08-19T12:01:43;1.95;;;1.63;;
22127;SDS011;11230;50.854;6.454;2022-08-19T12:06:26;2.97;;;1.77;;
22127;SDS011;11230;50.854;6.454;2022-08-19T12:11:08;4.65;;;2.50;;
22127;SDS011;11230;50.854;6.454;2022-08-19T12:15:50;2.47;;;1.08;;
22127;SDS011;11230;50.854;6.454;2022-08-19T12:20:34;5.70;;;1.90;;
22127;SDS011;11230;50.854;6.454;2022-08-19T12:25:17;1.77;;;1.45;;
22127;SDS011;11230;50.854;6.454;2022-08-19T12:29:59;1.60;;;1.33;;
22127;SDS011;11230;50.854;6.454;2022-08-19T12:34:41;1.77;;;1.50;;
22127;SDS011;11230;50.854;6.454;2022-08-19T12:39:23;2.13;;;1.40;;
22127;SDS011;11230;50.854;6.454;2022-08-19T12:44:05;3.85;;;2.03;;
22127;SDS011;11230;50.854;6.454;2022-08-19T12:48:47;2.45;;;1.33;;
22127;SDS011;11230;50.854;6.454;2022-08-19T12:53:28;2.35;;;1.00;;
22127;SDS011;11230;50.854;6.454;2022-08-19T12:58:10;2.63;;;1.38;;
22127;SDS011;11230;50.854;6.454;2022-08-19T13:02:56;1.90;;;1.05;;
22127;SDS011;11230;50.854;6.454;2022-08-19T13:07:38;1.85;;;1.10;;
22127;SDS011;11230;50.854;6.454;2022-08-19T13:12:20;1.45;;;1.00;;
22127;SDS011;11230;50.854;6.454;2022-08-19T13:17:04;0.30;;;0.25;;
22127;SDS011;11230;50.854;6.454;2022-08-19T13:21:48;1.83;;;1.20;;
22127;SDS011;11230;50.854;6.454;2022-08-19T13:26:30;0.40;;;0.40;;
22127;SDS011;11230;50.854;6.454;2022-08-19T13:31:14;1.88;;;0.73;;
22127;SDS011;11230;50.854;6.454;2022-08-19T13:36:12;0.68;;;0.68;;
22127;SDS011;11230;50.854;6.454;2022-08-19T13:41:03;0.50;;;0.45;;
22127;SDS011;11230;50.854;6.454;2022-08-19T13:45:45;0.38;;;0.30;;
22127;SDS011;11230;50.854;6.454;2022-08-19T13:50:27;0.80;;;0.43;;
22127;SDS011;11230;50.854;6.454;2022-08-19T13:55:09;0.40;;;0.40;;
22127;SDS011;11230;50.854;6.454;2022-08-19T13:59:52;0.43;;;0.43;;
22127;SDS011;11230;50.854;6.454;2022-08-19T14:04:34;0.63;;;0.50;;
22127;SDS011;11230;50.854;6.454;2022-08-19T14:09:15;0.40;;;0.40;;
22127;SDS011;11230;50.854;6.454;2022-08-19T14:13:56;1.02;;;0.38;;
22127;SDS011;11230;50.854;6.454;2022-08-19T14:18:39;1.35;;;0.73;;
22127;SDS011;11230;50.854;6.454;2022-08-19T14:23:21;0.30;;;0.30;;
22127;SDS011;11230;50.854;6.454;2022-08-19T14:28:02;0.38;;;0.38;;
22127;SDS011;11230;50.854;6.454;2022-08-19T14:32:44;0.30;;;0.30;;
22127;SDS011;11230;50.854;6.454;2022-08-19T14:37:27;0.28;;;0.28;;
22127;SDS011;11230;50.854;6.454;2022-08-19T14:42:08;0.20;;;0.20;;
22127;SDS011;11230;50.854;6.454;2022-08-19T14:46:50;0.20;;;0.20;;
22127;SDS011;11230;50.854;6.454;2022-08-19T14:51:32;0.65;;;0.40;;
22127;SDS011;11230;50.854;6.454;2022-08-19T14:56:16;0.77;;;0.17;;
22127;SDS011;11230;50.854;6.454;2022-08-19T15:00:58;0.75;;;0.55;;
22127;SDS011;11230;50.854;6.454;2022-08-19T15:05:39;0.63;;;0.47;;
22127;SDS011;11230;50.854;6.454;2022-08-19T15:10:21;0.55;;;0.40;;
22127;SDS011;11230;50.854;6.454;2022-08-19T15:15:06;0.60;;;0.30;;
22127;SDS011;11230;50.854;6.454;2022-08-19T15:19:50;0.43;;;0.38;;
22127;SDS011;11230;50.854;6.454;2022-08-19T15:24:32;0.38;;;0.30;;
22127;SDS011;11230;50.854;6.454;2022-08-19T15:29:15;0.20;;;0.20;;
22127;SDS011;11230;50.854;6.454;2022-08-19T15:33:58;0.40;;;0.30;;
22127;SDS011;11230;50.854;6.454;2022-08-19T15:38:40;0.43;;;0.43;;
22127;SDS011;11230;50.854;6.454;2022-08-19T15:43:22;0.17;;;0.17;;
22127;SDS011;11230;50.854;6.454;2022-08-19T15:48:04;0.30;;;0.30;;
22127;SDS011;11230;50.854;6.454;2022-08-19T15:52:48;0.30;;;0.30;;
22127;SDS011;11230;50.854;6.454;2022-08-19T15:57:32;0.20;;;0.20;;
22127;SDS011;11230;50.854;6.454;2022-08-19T16:02:31;0.57;;;0.40;;
22127;SDS011;11230;50.854;6.454;2022-08-19T16:07:44;0.25;;;0.25;;
22127;SDS011;11230;50.854;6.454;2022-08-19T16:12:27;0.30;;;0.30;;
22127;SDS011;11230;50.854;6.454;2022-08-19T16:17:09;0.25;;;0.25;;
22127;SDS011;11230;50.854;6.454;2022-08-19T16:21:53;0.10;;;0.10;;
22127;SDS011;11230;50.854;6.454;2022-08-19T16:26:34;0.10;;;0.10;;
22127;SDS011;11230;50.854;6.454;2022-08-19T16:31:17;0.47;;;0.35;;
22127;SDS011;11230;50.854;6.454;2022-08-19T16:35:58;0.43;;;0.20;;
22127;SDS011;11230;50.854;6.454;2022-08-19T16:40:40;0.50;;;0.20;;
22127;SDS011;11230;50.854;6.454;2022-08-19T16:45:21;1.00;;;0.52;;
22127;SDS011;11230;50.854;6.454;2022-08-19T16:50:04;0.25;;;0.20;;
22127;SDS011;11230;50.854;6.454;2022-08-19T16:54:47;0.55;;;0.38;;
22127;SDS011;11230;50.854;6.454;2022-08-19T16:59:28;0.50;;;0.35;;
22127;SDS011;11230;50.854;6.454;2022-08-19T17:04:11;0.77;;;0.35;;
22127;SDS011;11230;50.854;6.454;2022-08-19T17:08:55;0.10;;;0.10;;
22127;SDS011;11230;50.854;6.454;2022-08-19T17:13:37;0.35;;;0.35;;
22127;SDS011;11230;50.854;6.454;2022-08-19T17:18:19;0.20;;;0.20;;
22127;SDS011;11230;50.854;6.454;2022-08-19T17:23:01;0.10;;;0.10;;
22127;SDS011;11230;50.854;6.454;2022-08-19T17:27:45;0.17;;;0.17;;
22127;SDS011;11230;50.854;6.454;2022-08-19T17:32:27;0.25;;;0.20;;
22127;SDS011;11230;50.854;6.454;2022-08-19T17:37:09;0.20;;;0.20;;
22127;SDS011;11230;50.854;6.454;2022-08-19T17:41:50;0.40;;;0.40;;
22127;SDS011;11230;50.854;6.454;2022-08-19T17:46:34;0.40;;;0.40;;
22127;SDS011;11230;50.854;6.454;2022-08-19T17:51:16;0.60;;;0.50;;
22127;SDS011;11230;50.854;6.454;2022-08-19T17:55:58;2.95;;;0.77;;
22127;SDS011;11230;50.854;6.454;2022-08-19T18:00:40;1.30;;;0.60;;
22127;SDS011;11230;50.854;6.454;2022-08-19T18:05:24;0.10;;;0.10;;
22127;SDS011;11230;50.854;6.454;2022-08-19T18:10:08;0.60;;;0.57;;
22127;SDS011;11230;50.854;6.454;2022-08-19T18:14:50;0.10;;;0.10;;
22127;SDS011;11230;50.854;6.454;2022-08-19T18:19:31;0.20;;;0.20;;
22127;SDS011;11230;50.854;6.454;2022-08-19T18:24:15;1.75;;;0.95;;
22127;SDS011;11230;50.854;6.454;2022-08-19T18:28:57;0.30;;;0.30;;
22127;SDS011;11230;50.854;6.454;2022-08-19T18:33:38;4.10;;;1.17;;
22127;SDS011;11230;50.854;6.454;2022-08-19T18:38:20;0.28;;;0.28;;
22127;SDS011;11230;50.854;6.454;2022-08-19T18:43:20;0.20;;;0.20;;
22127;SDS011;11230;50.854;6.454;2022-08-19T18:48:27;0.20;;;0.20;;
22127;SDS011;11230;50.854;6.454;2022-08-19T18:53:27;0.28;;;0.22;;
22127;SDS011;11230;50.854;6.454;2022-08-19T18:58:09;0.17;;;0.17;;
22127;SDS011;11230;50.854;6.454;2022-08-19T19:02:52;0.55;;;0.32;;
22127;SDS011;11230;50.854;6.454;2022-08-19T19:07:33;0.20;;;0.13;;
22127;SDS011;11230;50.854;6.454;2022-08-19T19:12:15;0.35;;;0.35;;
22127;SDS011;11230;50.854;6.454;2022-08-19T19:16:58;0.90;;;0.20;;
22127;SDS011;11230;50.854;6.454;2022-08-19T19:21:41;0.20;;;0.20;;
22127;SDS011;11230;50.854;6.454;2022-08-19T19:26:26;0.20;;;0.20;;
22127;SDS011;11230;50.854;6.454;2022-08-19T19:31:09;0.20;;;0.20;;
22127;SDS011;11230;50.854;6.454;2022-08-19T19:35:51;0.10;;;0.10;;
22127;SDS011;11230;50.854;6.454;2022-08-19T19:40:34;0.10;;;0.10;;
22127;SDS011;11230;50.854;6.454;2022-08-19T19:45:16;0.20;;;0.20;;
22127;SDS011;11230;50.854;6.454;2022-08-19T19:49:58;0.10;;;0.10;;
22127;SDS011;11230;50.854;6.454;2022-08-19T19:54:41;0.20;;;0.20;;
22127;SDS011;11230;50.854;6.454;2022-08-19T19:59:24;0.30;;;0.30;;
22127;SDS011;11230;50.854;6.454;2022-08-19T20:04:05;0.20;;;0.10;;
22127;SDS011;11230;50.854;6.454;2022-08-19T20:08:47;4.13;;;0.40;;
22127;SDS011;11230;50.854;6.454;2022-08-19T20:13:46;0.65;;;0.52;;
22127;SDS011;11230;50.854;6.454;2022-08-19T20:18:29;0.20;;;0.20;;
22127;SDS011;11230;50.854;6.454;2022-08-19T20:23:10;0.28;;;0.28;;
22127;SDS011;11230;50.854;6.454;2022-08-19T20:27:52;0.10;;;0.10;;
22127;SDS011;11230;50.854;6.454;2022-08-19T20:32:33;0.43;;;0.22;;
22127;SDS011;11230;50.854;6.454;2022-08-19T20:37:16;0.43;;;0.43;;
22127;SDS011;11230;50.854;6.454;2022-08-19T20:41:58;0.38;;;0.22;;
22127;SDS011;11230;50.854;6.454;2022-08-19T20:46:39;0.40;;;0.32;;
22127;SDS011;11230;50.854;6.454;2022-08-19T20:51:21;0.13;;;0.13;;
22127;SDS011;11230;50.854;6.454;2022-08-19T20:56:04;0.25;;;0.25;;
22127;SDS011;11230;50.854;6.454;2022-08-19T21:00:46;1.10;;;0.68;;
22127;SDS011;11230;50.854;6.454;2022-08-19T21:05:28;0.60;;;0.22;;
22127;SDS011;11230;50.854;6.454;2022-08-19T21:10:10;0.20;;;0.20;;
22127;SDS011;11230;50.854;6.454;2022-08-19T21:15:00;0.85;;;0.75;;
22127;SDS011;11230;50.854;6.454;2022-08-19T21:19:42;0.63;;;0.30;;
22127;SDS011;11230;50.854;6.454;2022-08-19T21:24:23;0.40;;;0.30;;
22127;SDS011;11230;50.854;6.454;2022-08-19T21:29:04;0.75;;;0.45;;
22127;SDS011;11230;50.854;6.454;2022-08-19T21:33:48;0.28;;;0.28;;
22127;SDS011;11230;50.854;6.454;2022-08-19T21:38:29;0.30;;;0.30;;
22127;SDS011;11230;50.854;6.454;2022-08-19T21:43:10;0.10;;;0.10;;
22127;SDS011;11230;50.854;6.454;2022-08-19T21:47:52;0.15;;;0.15;;
22127;SDS011;11230;50.854;6.454;2022-08-19T21:52:35;0.70;;;0.32;;
22127;SDS011;11230;50.854;6.454;2022-08-19T21:57:16;0.35;;;0.30;;
22127;SDS011;11230;50.854;6.454;2022-08-19T22:01:58;0.55;;;0.40;;
22127;SDS011;11230;50.854;6.454;2022-08-19T22:06:40;1.45;;;0.32;;
22127;SDS011;11230;50.854;6.454;2022-08-19T22:11:23;0.40;;;0.40;;
22127;SDS011;11230;50.854;6.454;2022-08-19T22:16:07;0.85;;;0.38;;
22127;SDS011;11230;50.854;6.454;2022-08-19T22:20:49;0.10;;;0.10;;
22127;SDS011;11230;50.854;6.454;2022-08-19T22:25:32;0.40;;;0.28;;
22127;SDS011;11230;50.854;6.454;2022-08-19T22:30:16;0.20;;;0.20;;
22127;SDS011;11230;50.854;6.454;2022-08-19T22:34:58;0.20;;;0.20;;
22127;SDS011;11230;50.854;6.454;2022-08-19T22:39:39;0.80;;;0.20;;
22127;SDS011;11230;50.854;6.454;2022-08-19T22:44:21;0.20;;;0.15;;
22127;SDS011;11230;50.854;6.454;2022-08-19T22:49:04;0.65;;;0.32;;
22127;SDS011;11230;50.854;6.454;2022-08-19T22:54:01;0.30;;;0.20;;
22127;SDS011;11230;50.854;6.454;2022-08-19T22:58:44;2.47;;;1.33;;
22127;SDS011;11230;50.854;6.454;2022-08-19T23:03:27;0.35;;;0.35;;
22127;SDS011;11230;50.854;6.454;2022-08-19T23:08:11;0.63;;;0.32;;
22127;SDS011;11230;50.854;6.454;2022-08-19T23:12:53;0.68;;;0.68;;
22127;SDS011;11230;50.854;6.454;2022-08-19T23:17:35;0.30;;;0.30;;
22127;SDS011;11230;50.854;6.454;2022-08-19T23:22:18;0.57;;;0.30;;
22127;SDS011;11230;50.854;6.454;2022-08-19T23:27:01;3.83;;;1.23;;
22127;SDS011;11230;50.854;6.454;2022-08-19T23:31:59;0.20;;;0.20;;
22127;SDS011;11230;50.854;6.454;2022-08-19T23:36:41;0.32;;;0.30;;
22127;SDS011;11230;50.854;6.454;2022-08-19T23:41:23;0.20;;;0.20;;
22127;SDS011;11230;50.854;6.454;2022-08-19T23:46:07;0.20;;;0.20;;
22127;SDS011;11230;50.854;6.454;2022-08-19T23:50:50;0.30;;;0.25;;
22127;SDS011;11230;50.854;6.454;2022-08-19T23:55:33;1.75;;;0.40;;
